createdAt,value
2023-04-11T00:00:35.546Z,7.43
2023-04-11T00:01:35.613Z,7.48
2023-04-11T00:02:35.681Z,7.39
2023-04-11T00:03:35.771Z,7.40
2023-04-11T00:04:35.544Z,7.32
2023-04-11T00:05:35.502Z,7.48
2023-04-11T00:06:35.482Z,7.49
2023-04-11T00:07:35.502Z,7.50
2023-04-11T00:08:35.496Z,7.43
2023-04-11T00:09:35.497Z,7.45
2023-04-11T00:10:35.464Z,7.48
2023-04-11T00:11:35.438Z,7.42
2023-04-11T00:12:35.423Z,7.43
2023-04-11T00:13:35.424Z,7.32
2023-04-11T00:14:35.433Z,7.37
2023-04-11T00:15:35.438Z,7.34
2023-04-11T00:16:35.406Z,7.34
2023-04-11T00:17:35.375Z,7.34
2023-04-11T00:18:35.351Z,7.35
2023-04-11T00:19:35.334Z,7.35
2023-04-11T00:20:35.381Z,7.31
2023-04-11T00:21:35.310Z,7.40
2023-04-11T00:22:35.363Z,7.34
2023-04-11T00:23:35.367Z,7.37
2023-04-11T00:24:35.289Z,7.31
2023-04-11T00:25:35.266Z,7.37
2023-04-11T00:26:35.262Z,7.37
2023-04-11T00:27:35.271Z,7.40
2023-04-11T00:28:35.269Z,7.34
2023-04-11T00:29:35.230Z,7.34
2023-04-11T00:30:35.244Z,7.37
2023-04-11T00:31:35.244Z,7.34
2023-04-11T00:32:35.243Z,7.34
2023-04-11T00:33:35.209Z,7.37
2023-04-11T00:34:35.214Z,7.39
2023-04-11T00:35:35.221Z,7.37
2023-04-11T00:36:35.186Z,7.32
2023-04-11T00:37:35.130Z,7.43
2023-04-11T00:38:35.147Z,7.40
2023-04-11T00:39:35.140Z,7.42
2023-04-11T00:40:35.130Z,7.42
2023-04-11T00:41:35.094Z,7.43
2023-04-11T00:42:35.077Z,7.46
2023-04-11T00:43:35.104Z,7.40
2023-04-11T00:44:35.056Z,7.48
2023-04-11T00:45:35.123Z,7.43
2023-04-11T00:46:35.085Z,7.40
2023-04-11T00:47:35.066Z,7.49
2023-04-11T00:48:35.007Z,7.46
2023-04-11T00:49:34.995Z,7.46
2023-04-11T00:50:34.993Z,7.45
2023-04-11T00:51:35.009Z,7.53
2023-04-11T00:52:35.029Z,7.50
2023-04-11T00:53:34.953Z,7.43
2023-04-11T00:54:34.937Z,7.50
2023-04-11T00:55:34.949Z,7.53
2023-04-11T00:56:34.937Z,7.71
2023-04-11T00:57:34.944Z,7.69
2023-04-11T00:58:34.938Z,7.63
2023-04-11T00:59:34.883Z,7.74
2023-04-11T01:00:34.872Z,7.80
2023-04-11T01:01:34.898Z,7.79
2023-04-11T01:02:34.959Z,7.82
2023-04-11T01:03:35.064Z,7.72
2023-04-11T01:04:34.913Z,7.74
2023-04-11T01:05:34.816Z,7.82
2023-04-11T01:06:34.807Z,7.83
2023-04-11T01:07:34.837Z,7.72
2023-04-11T01:08:34.819Z,7.86
2023-04-11T01:09:34.785Z,7.82
2023-04-11T01:10:34.769Z,7.85
2023-04-11T01:11:34.802Z,7.82
2023-04-11T01:12:34.745Z,7.90
2023-04-11T01:13:34.751Z,7.95
2023-04-11T01:14:34.750Z,7.95
2023-04-11T01:15:43.377Z,7.98
2023-04-11T01:16:34.724Z,7.95
2023-04-11T01:17:34.749Z,7.97
2023-04-11T01:18:34.719Z,7.97
2023-04-11T01:19:34.681Z,8.02
2023-04-11T01:20:34.696Z,8.04
2023-04-11T01:21:34.671Z,8.11
2023-04-11T01:22:34.673Z,8.11
2023-04-11T01:23:34.617Z,8.04
2023-04-11T01:24:34.623Z,8.16
2023-04-11T01:25:34.612Z,8.11
2023-04-11T01:26:34.643Z,8.11
2023-04-11T01:27:34.629Z,8.15
2023-04-11T01:28:34.566Z,8.04
2023-04-11T01:29:34.565Z,8.12
2023-04-11T01:30:34.628Z,8.10
2023-04-11T01:31:34.552Z,8.16
2023-04-11T01:32:34.641Z,8.12
2023-04-11T01:33:34.556Z,8.10
2023-04-11T01:34:34.506Z,8.12
2023-04-11T01:35:34.520Z,8.15
2023-04-11T01:36:34.478Z,8.12
2023-04-11T01:37:34.497Z,8.20
2023-04-11T01:38:34.531Z,8.16
2023-04-11T01:39:35.374Z,8.29
2023-04-11T01:40:34.435Z,8.19
2023-04-11T01:41:34.426Z,8.16
2023-04-11T01:42:34.429Z,8.15
2023-04-11T01:43:34.462Z,8.22
2023-04-11T01:44:34.396Z,8.12
2023-04-11T01:45:34.373Z,8.16
2023-04-11T01:46:34.374Z,8.16
2023-04-11T01:47:34.461Z,8.15
2023-04-11T01:48:34.666Z,8.18
2023-04-11T01:49:34.396Z,8.15
2023-04-11T01:50:34.364Z,8.15
2023-04-11T01:51:34.316Z,8.18
2023-04-11T01:52:34.314Z,8.18
2023-04-11T01:53:34.284Z,8.15
2023-04-11T01:54:34.292Z,8.22
2023-04-11T01:55:34.284Z,8.28
2023-04-11T01:56:34.336Z,8.26
2023-04-11T01:57:34.239Z,8.25
2023-04-11T01:58:34.239Z,8.34
2023-04-11T01:59:34.268Z,8.28
2023-04-11T02:00:34.224Z,8.30
2023-04-11T02:01:34.289Z,8.29
2023-04-11T02:02:34.344Z,8.33
2023-04-11T02:03:34.402Z,8.40
2023-04-11T02:04:34.177Z,8.43
2023-04-11T02:05:34.179Z,8.41
2023-04-11T02:06:34.171Z,8.44
2023-04-11T02:07:34.188Z,8.36
2023-04-11T02:08:34.195Z,8.40
2023-04-11T02:09:34.102Z,8.44
2023-04-11T02:10:34.094Z,8.44
2023-04-11T02:11:34.102Z,8.37
2023-04-11T02:12:34.098Z,8.40
2023-04-11T02:13:34.100Z,8.38
2023-04-11T02:14:34.066Z,8.47
2023-04-11T02:15:34.165Z,8.38
2023-04-11T02:16:34.029Z,8.43
2023-04-11T02:17:34.049Z,8.43
2023-04-11T02:18:34.013Z,8.41
2023-04-11T02:19:33.993Z,8.41
2023-04-11T02:20:34.041Z,8.48
2023-04-11T02:21:33.998Z,8.53
2023-04-11T02:22:34.014Z,8.44
2023-04-11T02:23:33.990Z,8.48
2023-04-11T02:24:33.980Z,8.45
2023-04-11T02:25:33.936Z,8.45
2023-04-11T02:26:34.040Z,8.40
2023-04-11T02:27:33.902Z,8.47
2023-04-11T02:28:33.930Z,8.44
2023-04-11T02:29:33.921Z,8.50
2023-04-11T02:30:33.911Z,8.47
2023-04-11T02:31:34.030Z,8.52
2023-04-11T02:32:33.910Z,8.47
2023-04-11T02:33:33.875Z,8.44
2023-04-11T02:34:33.863Z,8.45
2023-04-11T02:35:33.831Z,8.48
2023-04-11T02:36:33.854Z,8.50
2023-04-11T02:37:33.793Z,8.47
2023-04-11T02:38:33.812Z,8.53
2023-04-11T02:39:33.774Z,8.53
2023-04-11T02:40:33.790Z,8.61
2023-04-11T02:41:33.748Z,8.50
2023-04-11T02:42:33.754Z,8.45
2023-04-11T02:43:33.725Z,8.55
2023-04-11T02:44:33.769Z,8.53
2023-04-11T02:45:33.742Z,8.53
2023-04-11T02:46:33.757Z,8.50
2023-04-11T02:47:33.867Z,8.48
2023-04-11T02:48:33.675Z,8.45
2023-04-11T02:49:33.711Z,8.48
2023-04-11T02:50:33.647Z,8.44
2023-04-11T02:51:33.651Z,8.40
2023-04-11T02:52:33.749Z,8.45
2023-04-11T02:53:33.617Z,8.40
2023-04-11T02:54:33.653Z,8.40
2023-04-11T02:55:33.644Z,8.48
2023-04-11T02:56:33.612Z,8.47
2023-04-11T02:57:33.592Z,8.50
2023-04-11T02:58:33.563Z,8.50
2023-04-11T02:59:33.550Z,8.59
2023-04-11T03:00:33.582Z,8.59
2023-04-11T03:01:33.704Z,8.52
2023-04-11T03:02:33.693Z,8.53
2023-04-11T03:03:33.609Z,8.47
2023-04-11T03:04:33.587Z,8.53
2023-04-11T03:05:33.481Z,8.48
2023-04-11T03:06:33.498Z,8.33
2023-04-11T03:07:33.536Z,8.45
2023-04-11T03:08:33.471Z,8.41
2023-04-11T03:09:33.439Z,8.44
2023-04-11T03:10:33.423Z,8.43
2023-04-11T03:11:33.436Z,8.40
2023-04-11T03:12:33.425Z,8.43
2023-04-11T03:13:33.517Z,8.38
2023-04-11T03:14:33.411Z,8.45
2023-04-11T03:15:33.369Z,8.41
2023-04-11T03:16:33.416Z,8.29
2023-04-11T03:17:33.365Z,8.40
2023-04-11T03:18:33.366Z,8.37
2023-04-11T03:19:33.423Z,8.36
2023-04-11T03:20:33.347Z,8.40
2023-04-11T03:21:33.308Z,8.28
2023-04-11T03:22:33.295Z,8.30
2023-04-11T03:23:33.309Z,8.33
2023-04-11T03:24:33.288Z,8.29
2023-04-11T03:25:33.310Z,8.23
2023-04-11T03:26:33.290Z,8.28
2023-04-11T03:27:33.255Z,8.30
2023-04-11T03:28:33.255Z,8.15
2023-04-11T03:29:33.245Z,8.19
2023-04-11T03:30:33.249Z,8.18
2023-04-11T03:31:33.461Z,8.12
2023-04-11T03:32:33.233Z,8.15
2023-04-11T03:33:33.188Z,8.10
2023-04-11T03:34:33.444Z,8.08
2023-04-11T03:35:33.170Z,8.10
2023-04-11T03:36:33.149Z,8.11
2023-04-11T03:37:33.189Z,8.08
2023-04-11T03:38:33.122Z,8.11
2023-04-11T03:39:33.128Z,8.18
2023-04-11T03:40:33.166Z,8.07
2023-04-11T03:41:33.102Z,8.15
2023-04-11T03:42:33.092Z,8.12
2023-04-11T03:43:33.116Z,8.22
2023-04-11T03:44:33.058Z,8.20
2023-04-11T03:45:33.054Z,8.11
2023-04-11T03:46:33.120Z,8.22
2023-04-11T03:47:33.053Z,8.19
2023-04-11T03:48:33.026Z,8.22
2023-04-11T03:49:33.057Z,8.29
2023-04-11T03:50:32.989Z,8.34
2023-04-11T03:51:32.990Z,8.36
2023-04-11T03:52:33.002Z,8.43
2023-04-11T03:53:32.960Z,8.43
2023-04-11T03:54:33.931Z,8.47
2023-04-11T03:55:32.941Z,8.50
2023-04-11T03:56:32.980Z,8.62
2023-04-11T03:57:32.907Z,8.62
2023-04-11T03:58:32.945Z,8.65
2023-04-11T03:59:32.903Z,8.71
2023-04-11T04:00:32.884Z,8.65
2023-04-11T04:01:32.896Z,8.63
2023-04-11T04:02:32.963Z,8.63
2023-04-11T04:03:33.264Z,8.66
2023-04-11T04:04:32.958Z,8.73
2023-04-11T04:05:32.828Z,8.71
2023-04-11T04:06:32.808Z,8.68
2023-04-11T04:07:32.815Z,8.70
2023-04-11T04:08:32.817Z,8.71
2023-04-11T04:09:32.795Z,8.62
2023-04-11T04:10:32.775Z,8.70
2023-04-11T04:11:32.762Z,8.71
2023-04-11T04:12:32.779Z,8.66
2023-04-11T04:13:32.721Z,8.70
2023-04-11T04:14:32.783Z,8.65
2023-04-11T04:15:32.721Z,8.68
2023-04-11T04:16:32.718Z,8.68
2023-04-11T04:17:32.720Z,8.68
2023-04-11T04:18:32.716Z,8.71
2023-04-11T04:19:32.682Z,8.68
2023-04-11T04:20:32.656Z,8.63
2023-04-11T04:21:33.058Z,8.61
2023-04-11T04:22:32.690Z,8.68
2023-04-11T04:23:32.681Z,8.63
2023-04-11T04:24:32.602Z,8.68
2023-04-11T04:25:32.609Z,8.68
2023-04-11T04:26:32.575Z,8.66
2023-04-11T04:27:32.612Z,8.70
2023-04-11T04:28:32.584Z,8.68
2023-04-11T04:29:32.576Z,8.65
2023-04-11T04:30:32.533Z,8.65
2023-04-11T04:31:32.600Z,8.59
2023-04-11T04:32:32.633Z,8.65
2023-04-11T04:33:32.544Z,8.65
2023-04-11T04:34:32.526Z,8.65
2023-04-11T04:35:32.534Z,8.55
2023-04-11T04:36:32.471Z,8.68
2023-04-11T04:37:32.481Z,8.62
2023-04-11T04:38:32.453Z,8.61
2023-04-11T04:39:32.480Z,8.65
2023-04-11T04:40:32.479Z,8.62
2023-04-11T04:41:32.409Z,8.62
2023-04-11T04:42:32.398Z,8.68
2023-04-11T04:43:32.520Z,8.59
2023-04-11T04:44:32.413Z,8.63
2023-04-11T04:45:32.456Z,8.70
2023-04-11T04:46:32.404Z,8.61
2023-04-11T04:47:32.445Z,8.62
2023-04-11T04:48:32.402Z,8.63
2023-04-11T04:49:32.325Z,8.61
2023-04-11T04:50:32.320Z,8.61
2023-04-11T04:51:32.344Z,8.65
2023-04-11T04:52:32.340Z,8.62
2023-04-11T04:53:32.280Z,8.66
2023-04-11T04:54:32.303Z,8.66
2023-04-11T04:55:32.303Z,8.70
2023-04-11T04:56:32.293Z,8.68
2023-04-11T04:57:32.319Z,8.73
2023-04-11T04:58:32.282Z,8.68
2023-04-11T04:59:32.218Z,8.66
2023-04-11T05:00:32.203Z,8.76
2023-04-11T05:01:32.267Z,8.79
2023-04-11T05:02:32.263Z,8.91
2023-04-11T05:03:32.285Z,8.89
2023-04-11T05:04:32.200Z,8.94
2023-04-11T05:05:32.141Z,9.13
2023-04-11T05:06:32.177Z,9.04
2023-04-11T05:07:32.127Z,9.29
2023-04-11T05:08:32.158Z,9.40
2023-04-11T05:09:32.096Z,9.39
2023-04-11T05:10:32.113Z,9.50
2023-04-11T05:11:32.108Z,9.64
2023-04-11T05:12:32.082Z,9.64
2023-04-11T05:13:32.103Z,9.72
2023-04-11T05:14:32.067Z,9.74
2023-04-11T05:15:32.034Z,9.74
2023-04-11T05:16:32.095Z,9.74
2023-04-11T05:17:32.046Z,9.84
2023-04-11T05:18:32.022Z,9.97
2023-04-11T05:19:32.027Z,9.99
2023-04-11T05:20:31.972Z,10.02
2023-04-11T05:21:31.971Z,10.05
2023-04-11T05:22:31.983Z,9.94
2023-04-11T05:23:31.984Z,9.97
2023-04-11T05:24:31.937Z,9.99
2023-04-11T05:25:32.004Z,9.97
2023-04-11T05:26:31.906Z,10.09
2023-04-11T05:27:31.919Z,10.18
2023-04-11T05:28:31.937Z,10.08
2023-04-11T05:29:31.890Z,10.15
2023-04-11T05:30:31.895Z,10.05
2023-04-11T05:31:31.874Z,10.18
2023-04-11T05:32:31.903Z,10.08
2023-04-11T05:33:31.832Z,10.20
2023-04-11T05:34:31.840Z,10.32
2023-04-11T05:35:31.892Z,10.27
2023-04-11T05:36:31.816Z,10.26
2023-04-11T05:37:31.823Z,10.26
2023-04-11T05:38:31.772Z,10.33
2023-04-11T05:39:31.772Z,10.34
2023-04-11T05:40:31.793Z,10.38
2023-04-11T05:41:31.753Z,10.42
2023-04-11T05:42:31.755Z,10.44
2023-04-11T05:43:31.776Z,10.52
2023-04-11T05:44:31.767Z,10.56
2023-04-11T05:45:31.726Z,10.55
2023-04-11T05:46:32.536Z,10.59
2023-04-11T05:47:31.696Z,10.73
2023-04-11T05:48:31.696Z,10.71
2023-04-11T05:49:31.650Z,10.73
2023-04-11T05:50:31.649Z,10.74
2023-04-11T05:51:31.628Z,10.84
2023-04-11T05:52:31.655Z,10.81
2023-04-11T05:53:31.644Z,10.78
2023-04-11T05:54:31.641Z,10.86
2023-04-11T05:55:31.598Z,10.86
2023-04-11T05:56:31.592Z,10.88
2023-04-11T05:57:31.562Z,10.86
2023-04-11T05:58:31.589Z,10.86
2023-04-11T05:59:31.568Z,10.84
2023-04-11T06:00:31.592Z,10.88
2023-04-11T06:01:31.512Z,10.88
2023-04-11T06:02:31.693Z,10.78
2023-04-11T06:03:31.647Z,10.79
2023-04-11T06:04:31.695Z,10.79
2023-04-11T06:05:31.730Z,10.79
2023-04-11T06:06:31.455Z,10.82
2023-04-11T06:07:31.468Z,10.81
2023-04-11T06:08:31.431Z,10.89
2023-04-11T06:09:33.468Z,10.88
2023-04-11T06:10:31.451Z,10.76
2023-04-11T06:11:31.399Z,10.79
2023-04-11T06:12:31.450Z,10.84
2023-04-11T06:13:31.391Z,10.84
2023-04-11T06:14:31.395Z,10.78
2023-04-11T06:15:31.389Z,10.66
2023-04-11T06:16:31.421Z,10.60
2023-04-11T06:17:31.361Z,10.55
2023-04-11T06:18:31.381Z,10.47
2023-04-11T06:19:31.317Z,10.38
2023-04-11T06:20:31.322Z,10.29
2023-04-11T06:21:31.301Z,10.29
2023-04-11T06:22:31.323Z,10.23
2023-04-11T06:23:31.267Z,10.17
2023-04-11T06:24:31.296Z,10.14
2023-04-11T06:25:31.254Z,10.17
2023-04-11T06:26:31.240Z,10.05
2023-04-11T06:27:31.224Z,10.02
2023-04-11T06:28:31.267Z,10.05
2023-04-11T06:29:31.233Z,10.02
2023-04-11T06:30:31.205Z,9.99
2023-04-11T06:31:31.237Z,10.04
2023-04-11T06:32:31.218Z,10.02
2023-04-11T06:33:31.178Z,9.91
2023-04-11T06:34:31.194Z,9.97
2023-04-11T06:35:31.153Z,9.97
2023-04-11T06:36:31.124Z,10.04
2023-04-11T06:37:31.150Z,9.99
2023-04-11T06:38:31.129Z,10.05
2023-04-11T06:39:31.134Z,10.04
2023-04-11T06:40:31.115Z,9.99
2023-04-11T06:41:31.084Z,10.05
2023-04-11T06:42:31.061Z,10.07
2023-04-11T06:43:31.067Z,10.07
2023-04-11T06:44:31.079Z,10.04
2023-04-11T06:45:31.040Z,10.12
2023-04-11T06:46:31.072Z,10.04
2023-04-11T06:47:31.109Z,10.07
2023-04-11T06:48:31.032Z,10.04
2023-04-11T06:49:31.005Z,10.08
2023-04-11T06:50:30.996Z,10.14
2023-04-11T06:51:30.953Z,10.08
2023-04-11T06:52:30.985Z,10.11
2023-04-11T06:53:30.936Z,10.11
2023-04-11T06:54:30.945Z,10.17
2023-04-11T06:55:30.925Z,10.17
2023-04-11T06:56:30.963Z,10.22
2023-04-11T06:57:30.907Z,10.32
2023-04-11T06:58:30.896Z,10.33
2023-04-11T06:59:30.883Z,10.27
2023-04-11T07:00:30.863Z,10.32
2023-04-11T07:01:30.991Z,10.38
2023-04-11T07:02:30.998Z,10.34
2023-04-11T07:03:31.004Z,10.38
2023-04-11T07:04:31.054Z,10.32
2023-04-11T07:05:30.825Z,10.41
2023-04-11T07:06:30.813Z,10.26
2023-04-11T07:07:30.801Z,10.33
2023-04-11T07:08:30.763Z,10.27
2023-04-11T07:09:30.753Z,10.18
2023-04-11T07:10:30.807Z,10.25
2023-04-11T07:11:30.752Z,10.27
2023-04-11T07:12:30.744Z,10.29
2023-04-11T07:13:30.748Z,10.20
2023-04-11T07:14:30.698Z,10.22
2023-04-11T07:15:30.714Z,10.30
2023-04-11T07:16:30.794Z,10.33
2023-04-11T07:17:30.723Z,10.27
2023-04-11T07:18:30.672Z,10.25
2023-04-11T07:19:30.690Z,10.26
2023-04-11T07:20:30.634Z,10.15
2023-04-11T07:21:30.616Z,10.22
2023-04-11T07:22:30.626Z,10.23
2023-04-11T07:23:30.659Z,10.25
2023-04-11T07:24:30.630Z,10.22
2023-04-11T07:25:30.861Z,10.22
2023-04-11T07:26:30.562Z,10.20
2023-04-11T07:27:30.554Z,10.26
2023-04-11T07:28:30.550Z,10.26
2023-04-11T07:29:30.569Z,10.22
2023-04-11T07:30:30.538Z,10.07
2023-04-11T07:31:30.537Z,10.22
2023-04-11T07:32:30.529Z,10.25
2023-04-11T07:33:30.502Z,10.25
2023-04-11T07:34:30.496Z,10.18
2023-04-11T07:35:30.520Z,10.22
2023-04-11T07:36:30.484Z,10.12
2023-04-11T07:37:30.442Z,10.17
2023-04-11T07:38:30.549Z,10.23
2023-04-11T07:39:30.452Z,10.17
2023-04-11T07:40:30.452Z,10.20
2023-04-11T07:41:30.400Z,10.11
2023-04-11T07:42:30.446Z,10.09
2023-04-11T07:43:30.379Z,10.08
2023-04-11T07:44:30.372Z,10.09
2023-04-11T07:45:30.387Z,10.07
2023-04-11T07:46:30.384Z,10.07
2023-04-11T07:47:30.334Z,10.01
2023-04-11T07:48:30.319Z,9.93
2023-04-11T07:49:30.340Z,9.97
2023-04-11T07:50:30.315Z,9.90
2023-04-11T07:51:30.306Z,9.87
2023-04-11T07:52:30.299Z,9.83
2023-04-11T07:53:30.258Z,9.81
2023-04-11T07:54:30.344Z,9.81
2023-04-11T07:55:30.239Z,9.69
2023-04-11T07:56:30.243Z,9.60
2023-04-11T07:57:30.232Z,9.68
2023-04-11T07:58:30.197Z,9.66
2023-04-11T07:59:30.244Z,9.71
2023-04-11T08:00:30.193Z,9.64
2023-04-11T08:01:30.224Z,9.71
2023-04-11T08:02:30.279Z,9.66
2023-04-11T08:03:30.537Z,9.58
2023-04-11T08:04:30.313Z,9.74
2023-04-11T08:05:30.228Z,9.66
2023-04-11T08:06:30.136Z,9.79
2023-04-11T08:07:30.152Z,9.79
2023-04-11T08:08:30.091Z,9.89
2023-04-11T08:09:30.088Z,9.91
2023-04-11T08:10:30.101Z,10.07
2023-04-11T08:11:30.067Z,10.07
2023-04-11T08:12:30.081Z,10.18
2023-04-11T08:13:30.057Z,10.20
2023-04-11T08:14:30.030Z,10.23
2023-04-11T08:15:30.034Z,10.38
2023-04-11T08:16:30.042Z,10.44
2023-04-11T08:17:30.153Z,10.51
2023-04-11T08:18:30.013Z,10.59
2023-04-11T08:19:29.976Z,10.67
2023-04-11T08:20:29.980Z,10.70
2023-04-11T08:21:29.973Z,10.74
2023-04-11T08:22:29.936Z,10.82
2023-04-11T08:23:30.197Z,10.85
2023-04-11T08:24:29.957Z,10.79
2023-04-11T08:25:29.909Z,10.81
2023-04-11T08:26:29.888Z,10.82
2023-04-11T08:27:30.008Z,10.76
2023-04-11T08:28:29.922Z,10.73
2023-04-11T08:29:29.860Z,10.78
2023-04-11T08:30:29.876Z,10.79
2023-04-11T08:31:29.844Z,10.78
2023-04-11T08:32:29.871Z,10.82
2023-04-11T08:33:29.818Z,10.85
2023-04-11T08:34:29.818Z,10.82
2023-04-11T08:35:29.927Z,10.84
2023-04-11T08:36:29.832Z,10.81
2023-04-11T08:37:29.790Z,10.82
2023-04-11T08:38:29.754Z,10.79
2023-04-11T08:39:29.777Z,10.81
2023-04-11T08:40:29.780Z,10.85
2023-04-11T08:41:29.752Z,10.81
2023-04-11T08:42:29.748Z,10.91
2023-04-11T08:43:29.707Z,10.88
2023-04-11T08:44:29.734Z,10.84
2023-04-11T08:45:29.692Z,10.84
2023-04-11T08:46:29.699Z,10.85
2023-04-11T08:47:29.734Z,10.79
2023-04-11T08:48:29.711Z,10.74
2023-04-11T08:49:29.631Z,10.79
2023-04-11T08:50:29.622Z,10.73
2023-04-11T08:51:29.613Z,10.85
2023-04-11T08:52:29.640Z,10.81
2023-04-11T08:53:29.587Z,10.68
2023-04-11T08:54:29.630Z,10.68
2023-04-11T08:55:29.582Z,10.71
2023-04-11T08:56:29.555Z,10.76
2023-04-11T08:57:29.580Z,10.78
2023-04-11T08:58:29.583Z,10.73
2023-04-11T08:59:29.534Z,10.56
2023-04-11T09:00:29.533Z,10.60
2023-04-11T09:01:29.643Z,10.59
2023-04-11T09:02:29.577Z,10.64
2023-04-11T09:03:29.549Z,10.68
2023-04-11T09:04:29.517Z,10.56
2023-04-11T09:05:29.472Z,10.56
2023-04-11T09:06:29.472Z,10.55
2023-04-11T09:07:29.441Z,10.45
2023-04-11T09:08:29.466Z,10.40
2023-04-11T09:09:29.429Z,10.45
2023-04-11T09:10:29.427Z,10.41
2023-04-11T09:11:29.417Z,10.38
2023-04-11T09:12:29.731Z,10.32
2023-04-11T09:13:29.363Z,10.41
2023-04-11T09:14:29.431Z,10.36
2023-04-11T09:15:29.407Z,10.44
2023-04-11T09:16:29.399Z,10.47
2023-04-11T09:17:29.346Z,10.47
2023-04-11T09:18:29.385Z,10.55
2023-04-11T09:19:29.318Z,10.66
2023-04-11T09:20:29.306Z,10.70
2023-04-11T09:21:29.311Z,10.68
2023-04-11T09:22:29.294Z,10.67
2023-04-11T09:23:29.296Z,10.51
2023-04-11T09:24:29.270Z,10.45
2023-04-11T09:25:29.261Z,10.48
2023-04-11T09:26:29.285Z,10.47
2023-04-11T09:27:29.229Z,10.47
2023-04-11T09:28:29.244Z,10.44
2023-04-11T09:29:29.191Z,10.33
2023-04-11T09:30:29.230Z,10.23
2023-04-11T09:31:29.192Z,10.22
2023-04-11T09:32:29.226Z,10.27
2023-04-11T09:33:29.169Z,10.25
2023-04-11T09:34:29.179Z,10.38
2023-04-11T09:35:29.168Z,10.40
2023-04-11T09:36:29.141Z,10.41
2023-04-11T09:37:29.108Z,10.33
2023-04-11T09:38:29.108Z,10.34
2023-04-11T09:39:29.086Z,10.41
2023-04-11T09:40:29.065Z,10.44
2023-04-11T09:41:29.121Z,10.42
2023-04-11T09:42:29.041Z,10.55
2023-04-11T09:43:29.081Z,10.44
2023-04-11T09:44:29.021Z,10.55
2023-04-11T09:45:29.023Z,10.56
2023-04-11T09:46:29.040Z,10.53
2023-04-11T09:47:29.039Z,10.61
2023-04-11T09:48:43.355Z,10.63
2023-04-11T09:49:30.033Z,10.56
2023-04-11T09:50:28.983Z,10.51
2023-04-11T09:51:36.662Z,10.52
2023-04-11T09:52:29.951Z,10.63
2023-04-11T09:53:28.926Z,10.55
2023-04-11T09:54:28.941Z,10.56
2023-04-11T09:55:28.948Z,10.63
2023-04-11T09:56:28.940Z,10.71
2023-04-11T09:57:28.871Z,10.70
2023-04-11T09:58:31.206Z,10.79
2023-04-11T09:59:28.897Z,10.84
2023-04-11T10:00:28.846Z,10.71
2023-04-11T10:01:28.897Z,10.78
2023-04-11T10:02:28.898Z,10.74
2023-04-11T10:03:28.889Z,10.68
2023-04-11T10:04:28.881Z,10.59
2023-04-11T10:05:28.797Z,10.59
2023-04-11T10:06:28.800Z,10.56
2023-04-11T10:07:28.829Z,10.63
2023-04-11T10:08:28.759Z,10.55
2023-04-11T10:09:28.764Z,10.68
2023-04-11T10:10:29.073Z,10.68
2023-04-11T10:11:28.740Z,10.52
2023-04-11T10:12:28.724Z,10.51
2023-04-11T10:13:28.702Z,10.42
2023-04-11T10:14:28.703Z,10.40
2023-04-11T10:15:28.690Z,10.23
2023-04-11T10:16:28.942Z,10.33
2023-04-11T10:17:28.726Z,10.23
2023-04-11T10:18:28.700Z,10.34
2023-04-11T10:19:28.646Z,10.23
2023-04-11T10:20:28.691Z,10.33
2023-04-11T10:21:28.647Z,10.27
2023-04-11T10:22:28.614Z,10.30
2023-04-11T10:23:28.608Z,10.27
2023-04-11T10:24:28.640Z,10.29
2023-04-11T10:25:28.566Z,10.26
2023-04-11T10:26:28.608Z,10.26
2023-04-11T10:27:28.549Z,10.32
2023-04-11T10:28:28.578Z,10.33
2023-04-11T10:29:28.537Z,10.36
2023-04-11T10:30:28.554Z,10.41
2023-04-11T10:31:28.521Z,10.44
2023-04-11T10:32:28.541Z,10.48
2023-04-11T10:33:28.490Z,10.56
2023-04-11T10:34:28.499Z,10.60
2023-04-11T10:35:28.472Z,10.68
2023-04-11T10:36:28.441Z,10.67
2023-04-11T10:37:28.501Z,10.76
2023-04-11T10:38:28.417Z,10.79
2023-04-11T10:39:28.542Z,10.89
2023-04-11T10:40:28.438Z,11.07
2023-04-11T10:41:28.430Z,11.03
2023-04-11T10:42:28.397Z,11.14
2023-04-11T10:43:28.360Z,11.14
2023-04-11T10:44:28.359Z,11.07
2023-04-11T10:45:28.400Z,11.15
2023-04-11T10:46:28.379Z,11.18
2023-04-11T10:47:28.384Z,11.21
2023-04-11T10:48:28.306Z,11.29
2023-04-11T10:49:28.293Z,11.44
2023-04-11T10:50:28.306Z,11.40
2023-04-11T10:51:28.302Z,11.42
2023-04-11T10:52:28.305Z,11.44
2023-04-11T10:53:28.250Z,11.47
2023-04-11T10:54:28.301Z,11.46
2023-04-11T10:55:28.229Z,11.52
2023-04-11T10:56:28.226Z,11.60
2023-04-11T10:57:28.221Z,11.51
2023-04-11T10:58:28.235Z,11.47
2023-04-11T10:59:28.182Z,11.39
2023-04-11T11:00:28.236Z,11.27
2023-04-11T11:01:31.858Z,11.21
2023-04-11T11:02:29.404Z,11.27
2023-04-11T11:03:28.314Z,11.15
2023-04-11T11:04:28.254Z,11.14
2023-04-11T11:05:28.169Z,11.06
2023-04-11T11:06:28.145Z,11.09
2023-04-11T11:07:28.109Z,11.15
2023-04-11T11:08:28.129Z,11.18
2023-04-11T11:09:28.088Z,11.27
2023-04-11T11:10:28.059Z,11.22
2023-04-11T11:11:28.076Z,11.19
2023-04-11T11:12:28.041Z,11.33
2023-04-11T11:13:28.039Z,11.39
2023-04-11T11:14:28.069Z,11.39
2023-04-11T11:15:28.010Z,11.43
2023-04-11T11:16:36.142Z,11.42
2023-04-11T11:17:28.069Z,11.54
2023-04-11T11:18:27.970Z,11.46
2023-04-11T11:19:27.983Z,11.37
2023-04-11T11:20:27.979Z,11.40
2023-04-11T11:21:28.600Z,11.28
2023-04-11T11:22:27.944Z,11.33
2023-04-11T11:23:27.951Z,11.42
2023-04-11T11:24:27.906Z,11.40
2023-04-11T11:25:27.942Z,11.47
2023-04-11T11:26:27.906Z,11.40
2023-04-11T11:27:27.917Z,11.40
2023-04-11T11:29:27.855Z,11.49
2023-04-11T11:30:27.878Z,11.54
2023-04-11T11:31:27.897Z,11.64
2023-04-11T11:32:27.868Z,11.73
2023-04-11T11:33:27.804Z,11.75
2023-04-11T11:34:27.793Z,11.79
2023-04-11T11:35:27.824Z,11.90
2023-04-11T11:36:27.857Z,11.94
2023-04-11T11:37:27.782Z,11.99
2023-04-11T11:38:27.791Z,12.07
2023-04-11T11:39:27.764Z,11.91
2023-04-11T11:40:27.721Z,12.02
2023-04-11T11:41:27.750Z,11.94
2023-04-11T11:42:27.740Z,11.96
2023-04-11T11:43:27.738Z,11.95
2023-04-11T11:44:27.747Z,11.86
2023-04-11T11:45:27.701Z,11.72
2023-04-11T11:46:27.693Z,11.75
2023-04-11T11:47:27.696Z,11.75
2023-04-11T11:48:27.648Z,11.70
2023-04-11T11:49:27.696Z,11.73
2023-04-11T11:50:27.616Z,11.73
2023-04-11T11:51:27.664Z,11.69
2023-04-11T11:52:27.599Z,11.76
2023-04-11T11:53:27.582Z,11.76
2023-04-11T11:54:27.590Z,11.72
2023-04-11T11:55:27.620Z,11.72
2023-04-11T11:56:27.555Z,11.73
2023-04-11T11:57:27.570Z,11.76
2023-04-11T11:58:27.537Z,11.80
2023-04-11T11:59:27.571Z,11.70
2023-04-11T12:00:27.570Z,11.73
2023-04-11T12:01:27.547Z,11.78
2023-04-11T12:02:27.657Z,11.76
2023-04-11T12:03:27.585Z,11.73
2023-04-11T12:04:27.650Z,11.86
2023-04-11T12:05:27.534Z,11.95
2023-04-11T12:06:27.475Z,12.09
2023-04-11T12:07:27.500Z,12.04
2023-04-11T12:08:27.418Z,11.98
2023-04-11T12:09:27.424Z,11.95
2023-04-11T12:10:27.402Z,11.88
2023-04-11T12:11:27.423Z,11.95
2023-04-11T12:12:27.379Z,11.94
2023-04-11T12:13:27.377Z,11.95
2023-04-11T12:14:27.348Z,12.02
2023-04-11T12:15:27.359Z,12.02
2023-04-11T12:16:27.416Z,12.13
2023-04-11T12:17:27.376Z,12.14
2023-04-11T12:18:27.351Z,12.17
2023-04-11T12:19:27.304Z,12.20
2023-04-11T12:20:27.310Z,11.99
2023-04-11T12:21:27.302Z,12.04
2023-04-11T12:22:27.288Z,12.05
2023-04-11T12:23:27.336Z,12.13
2023-04-11T12:24:27.240Z,12.10
2023-04-11T12:25:27.290Z,12.16
2023-04-11T12:26:27.230Z,12.05
2023-04-11T12:27:27.235Z,12.14
2023-04-11T12:28:27.248Z,12.19
2023-04-11T12:29:27.223Z,12.05
2023-04-11T12:30:28.742Z,12.07
2023-04-11T12:31:27.297Z,12.21
2023-04-11T12:32:27.181Z,12.27
2023-04-11T12:33:27.145Z,12.28
2023-04-11T12:34:27.199Z,12.34
2023-04-11T12:35:27.116Z,12.41
2023-04-11T12:36:27.124Z,12.38
2023-04-11T12:37:27.121Z,12.46
2023-04-11T12:38:27.094Z,12.54
2023-04-11T12:39:27.144Z,12.60
2023-04-11T12:40:27.114Z,12.68
2023-04-11T12:41:31.502Z,12.86
2023-04-11T12:42:28.053Z,12.92
2023-04-11T12:43:27.042Z,13.01
2023-04-11T12:44:27.014Z,13.01
2023-04-11T12:45:27.031Z,12.86
2023-04-11T12:46:27.089Z,12.90
2023-04-11T12:47:26.997Z,12.89
2023-04-11T12:48:26.974Z,12.96
2023-04-11T12:49:26.998Z,13.00
2023-04-11T12:50:26.961Z,13.05
2023-04-11T12:51:26.954Z,13.19
2023-04-11T12:52:26.974Z,13.30
2023-04-11T12:53:26.932Z,13.36
2023-04-11T12:54:26.905Z,13.42
2023-04-11T12:55:27.070Z,13.39
2023-04-11T12:56:26.914Z,13.36
2023-04-11T12:57:26.915Z,13.38
2023-04-11T12:58:26.899Z,13.42
2023-04-11T12:59:26.865Z,13.54
2023-04-11T13:00:26.878Z,13.64
2023-04-11T13:01:26.917Z,13.59
2023-04-11T13:02:28.249Z,13.54
2023-04-11T13:03:27.083Z,13.39
2023-04-11T13:04:26.910Z,13.42
2023-04-11T13:05:26.809Z,13.38